createdAt,value
2019-03-12T00:00:13.679Z,87435.89
2019-03-12T00:02:40.447Z,87439.41
2019-03-12T00:05:07.813Z,87442.86
2019-03-12T00:07:34.708Z,87425.73
2019-03-12T00:10:01.728Z,87430.84
2019-03-12T00:12:28.471Z,87431.81
2019-03-12T00:14:55.255Z,87421.47
2019-03-12T00:17:21.986Z,87420.56
2019-03-12T00:19:48.725Z,87426.36
2019-03-12T00:22:15.584Z,87412.48
2019-03-12T00:24:42.341Z,87422.61
2019-03-12T00:27:09.084Z,87427.96
2019-03-12T00:29:35.885Z,87438.02
2019-03-12T00:32:02.600Z,87442.73
2019-03-12T00:34:29.316Z,87450.71
2019-03-12T00:36:56.086Z,87460.17
2019-03-12T00:39:22.840Z,87466.11
2019-03-12T00:41:49.721Z,87465.95
2019-03-12T00:44:16.472Z,87465.17
2019-03-12T00:46:43.222Z,87466.62
2019-03-12T00:49:10.118Z,87460.13
2019-03-12T00:51:36.841Z,87473.09
2019-03-12T00:54:03.621Z,87463.47
2019-03-12T00:56:30.403Z,87466.59
2019-03-12T00:58:57.105Z,87471.59
2019-03-12T01:01:24.067Z,87481.41
2019-03-12T01:03:50.857Z,87464.34
2019-03-12T01:06:17.862Z,87474.80
2019-03-12T01:08:46.637Z,87479.18
2019-03-12T01:11:13.368Z,87470.27
2019-03-12T01:13:40.075Z,87480.37
2019-03-12T01:16:06.915Z,87487.33
2019-03-12T01:18:33.621Z,87473.83
2019-03-12T01:21:00.357Z,87471.34
2019-03-12T01:23:27.230Z,87458.84
2019-03-12T01:25:53.952Z,87464.77
2019-03-12T01:28:20.671Z,87460.19
2019-03-12T01:30:47.532Z,87459.80
2019-03-12T01:33:14.233Z,87461.20
2019-03-12T01:35:40.987Z,87450.41
2019-03-12T01:38:07.866Z,87456.59
2019-03-12T01:40:34.563Z,87455.69
2019-03-12T01:43:01.338Z,87442.78
2019-03-12T01:45:28.114Z,87439.19
2019-03-12T01:47:54.845Z,87437.55
2019-03-12T01:50:21.639Z,87449.21
2019-03-12T01:52:48.376Z,87436.44
2019-03-12T01:55:16.595Z,87442.72
2019-03-12T01:57:43.362Z,87446.13
2019-03-12T02:00:16.200Z,87432.89
2019-03-12T02:02:43.030Z,87441.95
2019-03-12T02:05:09.789Z,87441.81
2019-03-12T02:07:36.654Z,87447.87
2019-03-12T02:10:06.599Z,87449.12
2019-03-12T02:12:33.290Z,87441.70
2019-03-12T02:15:00.017Z,87440.18
2019-03-12T02:17:26.908Z,87433.16
2019-03-12T02:19:53.637Z,87440.86
2019-03-12T02:22:20.351Z,87446.04
2019-03-12T02:25:09.691Z,87441.47
2019-03-12T02:27:36.405Z,87445.83
2019-03-12T02:30:08.323Z,87452.89
2019-03-12T02:32:35.186Z,87456.54
2019-03-12T02:35:02.145Z,87459.92
2019-03-12T02:37:28.865Z,87463.34
2019-03-12T02:39:55.655Z,87461.74
2019-03-12T02:42:22.367Z,87470.20
2019-03-12T02:44:49.260Z,87469.13
2019-03-12T02:47:16.010Z,87466.77
2019-03-12T02:49:42.712Z,87465.84
2019-03-12T02:52:09.501Z,87467.51
2019-03-12T02:54:36.231Z,87466.78
2019-03-12T02:57:03.063Z,87465.63
2019-03-12T02:59:29.765Z,87468.73
2019-03-12T03:01:56.508Z,87473.09
2019-03-12T03:04:23.289Z,87468.20
2019-03-12T03:06:49.999Z,87480.10
2019-03-12T03:09:16.799Z,87477.41
2019-03-12T03:11:43.695Z,87485.34
2019-03-12T03:14:33.056Z,87491.95
2019-03-12T03:16:59.820Z,87498.53
2019-03-12T03:19:26.576Z,87503.74
2019-03-12T03:21:53.320Z,87503.52
2019-03-12T03:24:20.095Z,87499.77
2019-03-12T03:26:46.824Z,87513.56
2019-03-12T03:29:13.691Z,87502.89
2019-03-12T03:31:40.422Z,87497.65
2019-03-12T03:34:07.256Z,87501.29
2019-03-12T03:36:34.113Z,87505.48
2019-03-12T03:39:00.919Z,87507.55
2019-03-12T03:41:27.798Z,87508.22
2019-03-12T03:43:54.665Z,87509.69
2019-03-12T03:46:21.393Z,87500.48
2019-03-12T03:48:48.163Z,87506.95
2019-03-12T03:51:14.898Z,87505.66
2019-03-12T03:53:41.618Z,87502.76
2019-03-12T03:56:08.488Z,87511.27
2019-03-12T03:58:35.206Z,87504.86
2019-03-12T04:01:01.941Z,87506.92
2019-03-12T04:03:28.746Z,87510.98
2019-03-12T04:05:55.461Z,87513.61
2019-03-12T04:08:22.293Z,87518.12
2019-03-12T04:10:49.036Z,87525.50
2019-03-12T04:13:15.794Z,87521.02
2019-03-12T04:15:42.606Z,87520.25
2019-03-12T04:18:09.323Z,87514.52
2019-03-12T04:20:36.031Z,87522.58
2019-03-12T04:23:02.933Z,87530.16
2019-03-12T04:25:29.622Z,87525.53
2019-03-12T04:27:56.390Z,87527.02
2019-03-12T04:30:23.171Z,87527.79
2019-03-12T04:32:49.910Z,87535.70
2019-03-12T04:35:27.652Z,87539.83
2019-03-12T04:37:54.366Z,87542.34
2019-03-12T04:40:21.116Z,87541.02
2019-03-12T04:42:48.005Z,87537.55
2019-03-12T04:45:15.746Z,87545.65
2019-03-12T04:47:42.550Z,87547.99
2019-03-12T04:50:09.451Z,87541.92
2019-03-12T04:52:36.190Z,87544.67
2019-03-12T04:55:09.376Z,87550.00
2019-03-12T04:57:36.127Z,87552.36
2019-03-12T05:00:08.180Z,87555.96
2019-03-12T05:02:34.995Z,87568.64
2019-03-12T05:05:01.842Z,87563.50
2019-03-12T05:07:28.574Z,87557.75
2019-03-12T05:09:55.331Z,87568.40
2019-03-12T05:12:22.097Z,87567.78
2019-03-12T05:14:48.993Z,87567.14
2019-03-12T05:17:15.709Z,87575.17
2019-03-12T05:19:42.423Z,87575.23
2019-03-12T05:22:09.217Z,87580.62
2019-03-12T05:24:35.955Z,87580.34
2019-03-12T05:27:02.663Z,87579.79
2019-03-12T05:29:29.543Z,87575.69
2019-03-12T05:31:56.246Z,87583.13
2019-03-12T05:34:23.311Z,87588.88
2019-03-12T05:36:50.289Z,87604.02
2019-03-12T05:39:17.013Z,87596.51
2019-03-12T05:41:43.889Z,87607.20
2019-03-12T05:44:10.624Z,87613.93
2019-03-12T05:46:37.316Z,87617.02
2019-03-12T05:49:04.199Z,87619.88
2019-03-12T05:51:30.915Z,87635.41
2019-03-12T05:53:57.619Z,87645.84
2019-03-12T05:56:24.488Z,87645.54
2019-03-12T05:58:51.216Z,87650.41
2019-03-12T06:01:17.962Z,87649.14
2019-03-12T06:03:44.849Z,87645.44
2019-03-12T06:06:11.584Z,87653.73
2019-03-12T06:08:38.313Z,87658.30
2019-03-12T06:11:05.205Z,87665.47
2019-03-12T06:13:31.987Z,87666.77
2019-03-12T06:15:58.909Z,87665.20
2019-03-12T06:18:25.667Z,87673.75
2019-03-12T06:20:52.383Z,87674.34
2019-03-12T06:23:19.275Z,87673.66
2019-03-12T06:25:46.008Z,87673.51
2019-03-12T06:28:12.726Z,87675.48
2019-03-12T06:30:39.604Z,87678.91
2019-03-12T06:33:06.328Z,87681.52
2019-03-12T06:35:33.039Z,87689.02
2019-03-12T06:37:59.892Z,87688.89
2019-03-12T06:40:26.672Z,87693.23
2019-03-12T06:42:53.389Z,87691.56
2019-03-12T06:45:20.151Z,87698.19
2019-03-12T06:47:46.880Z,87705.59
2019-03-12T06:50:13.760Z,87705.47
2019-03-12T06:52:40.474Z,87703.62
2019-03-12T06:55:07.216Z,87697.05
2019-03-12T06:57:37.997Z,87709.32
2019-03-12T07:00:09.813Z,87708.83
2019-03-12T07:02:36.528Z,87714.25
2019-03-12T07:05:04.801Z,87714.03
2019-03-12T07:07:33.735Z,87705.42
2019-03-12T07:10:00.442Z,87712.58
2019-03-12T07:12:30.917Z,87707.30
2019-03-12T07:14:57.652Z,87719.81
2019-03-12T07:17:24.386Z,87719.61
2019-03-12T07:19:51.175Z,87712.08
2019-03-12T07:22:17.908Z,87719.97
2019-03-12T07:24:44.782Z,87726.06
2019-03-12T07:27:11.503Z,87722.76
2019-03-12T07:29:38.250Z,87721.28
2019-03-12T07:32:05.008Z,87725.16
2019-03-12T07:34:36.549Z,87725.48
2019-03-12T07:37:00.423Z,87720.80
2019-03-12T07:39:27.167Z,87724.90
2019-03-12T07:41:53.933Z,87731.39
2019-03-12T07:44:20.684Z,87726.69
2019-03-12T07:46:47.375Z,87735.13
2019-03-12T07:49:14.163Z,87727.04
2019-03-12T07:51:40.891Z,87726.68
2019-03-12T07:54:07.622Z,87729.80
2019-03-12T07:56:34.522Z,87735.30
2019-03-12T07:59:01.226Z,87733.92
2019-03-12T08:01:27.966Z,87733.63
2019-03-12T08:03:54.836Z,87730.58
2019-03-12T08:06:21.572Z,87744.00
2019-03-12T08:08:48.284Z,87735.29
2019-03-12T08:11:15.074Z,87735.22
2019-03-12T08:13:41.851Z,87736.14
2019-03-12T08:16:08.575Z,87735.22
2019-03-12T08:18:36.548Z,87727.98
2019-03-12T08:21:03.275Z,87733.39
2019-03-12T08:23:30.025Z,87729.71
2019-03-12T08:25:56.781Z,87721.22
2019-03-12T08:28:23.516Z,87726.12
2019-03-12T08:30:50.292Z,87716.20
2019-03-12T08:33:17.068Z,87707.60
2019-03-12T08:35:43.913Z,87710.97
2019-03-12T08:38:10.658Z,87699.81
2019-03-12T08:40:37.380Z,87690.38
2019-03-12T08:43:04.142Z,87693.82
2019-03-12T08:45:30.872Z,87686.77
2019-03-12T08:47:57.621Z,87692.93
2019-03-12T08:50:24.370Z,87684.56
2019-03-12T08:52:51.227Z,87689.64
2019-03-12T08:55:17.947Z,87688.67
2019-03-12T08:57:44.703Z,87680.54
2019-03-12T09:00:11.622Z,87682.97
2019-03-12T09:02:38.473Z,87680.41
2019-03-12T09:05:05.611Z,87675.43
2019-03-12T09:07:32.355Z,87666.39
2019-03-12T09:09:59.081Z,87660.95
2019-03-12T09:12:25.857Z,87661.22
2019-03-12T09:14:52.627Z,87656.38
2019-03-12T09:17:19.386Z,87658.80
2019-03-12T09:19:46.115Z,87662.46
2019-03-12T09:22:12.959Z,87662.08
2019-03-12T09:24:39.671Z,87658.23
2019-03-12T09:27:06.418Z,87649.94
2019-03-12T09:29:33.186Z,87649.96
2019-03-12T09:31:59.938Z,87636.52
2019-03-12T09:34:26.781Z,87640.53
2019-03-12T09:36:53.535Z,87651.70
2019-03-12T09:39:20.254Z,87634.36
2019-03-12T09:41:49.859Z,87630.13
2019-03-12T09:44:25.287Z,87634.55
2019-03-12T09:46:52.058Z,87631.25
2019-03-12T09:49:18.786Z,87626.82
2019-03-12T09:51:45.575Z,87630.92
2019-03-12T09:54:12.281Z,87633.78
2019-03-12T09:56:39.542Z,87625.07
2019-03-12T09:59:06.286Z,87620.75
2019-03-12T10:01:33.020Z,87620.47
2019-03-12T10:03:59.805Z,87616.37
2019-03-12T10:06:26.528Z,87622.02
2019-03-12T10:08:53.290Z,87616.19
2019-03-12T10:11:20.112Z,87622.17
2019-03-12T10:13:46.822Z,87616.29
2019-03-12T10:16:13.619Z,87617.73
2019-03-12T10:18:40.463Z,87617.97
2019-03-12T10:21:07.218Z,87619.91
2019-03-12T10:23:33.950Z,87613.63
2019-03-12T10:26:00.791Z,87620.78
2019-03-12T10:28:27.452Z,87623.52
2019-03-12T10:30:54.264Z,87614.20
2019-03-12T10:33:21.005Z,87608.34
2019-03-12T10:35:47.802Z,87611.39
2019-03-12T10:39:10.628Z,87623.22
2019-03-12T10:41:37.522Z,87611.28
2019-03-12T10:44:04.244Z,87621.05
2019-03-12T10:46:31.001Z,87628.00
2019-03-12T10:48:57.888Z,87626.38
2019-03-12T10:51:24.615Z,87628.02
2019-03-12T10:53:51.340Z,87637.80
2019-03-12T10:56:18.120Z,87632.28
2019-03-12T10:58:44.838Z,87634.45
2019-03-12T11:01:11.810Z,87638.57
2019-03-12T11:03:38.539Z,87636.52
2019-03-12T11:06:05.269Z,87649.50
2019-03-12T11:08:32.155Z,87646.97
2019-03-12T11:10:58.872Z,87640.25
2019-03-12T11:13:25.589Z,87642.30
2019-03-12T11:15:52.428Z,87640.63
2019-03-12T11:18:19.154Z,87635.81
2019-03-12T11:20:45.936Z,87627.12
2019-03-12T11:23:12.639Z,87629.92
2019-03-12T11:25:39.392Z,87630.55
2019-03-12T11:28:06.228Z,87616.84
2019-03-12T11:30:33.078Z,87604.62
2019-03-12T11:32:59.926Z,87604.33
2019-03-12T11:35:26.804Z,87596.58
2019-03-12T11:37:53.510Z,87603.22
2019-03-12T11:40:23.044Z,87602.83
2019-03-12T11:42:49.912Z,87596.19
2019-03-12T11:45:19.528Z,87595.00
2019-03-12T11:47:45.567Z,87594.38
2019-03-12T11:50:16.855Z,87584.13
2019-03-12T11:52:52.448Z,87590.61
2019-03-12T11:55:14.421Z,87585.58
2019-03-12T11:57:41.235Z,87579.09
2019-03-12T12:00:20.645Z,87574.67
2019-03-12T12:02:59.318Z,87579.05
2019-03-12T12:05:15.995Z,87574.23
2019-03-12T12:07:42.733Z,87571.42
2019-03-12T12:10:16.633Z,87565.62
2019-03-12T12:12:43.458Z,87558.24
2019-03-12T12:15:11.989Z,87563.47
2019-03-12T12:17:38.933Z,87556.88
2019-03-12T12:20:10.267Z,87549.36
2019-03-12T12:22:36.975Z,87552.50
2019-03-12T12:25:09.224Z,87553.41
2019-03-12T12:27:35.971Z,87545.02
2019-03-12T12:30:10.252Z,87543.82
2019-03-12T12:32:37.130Z,87535.34
2019-03-12T12:35:08.358Z,87532.73
2019-03-12T12:37:35.108Z,87537.42
2019-03-12T12:40:02.091Z,87526.55
2019-03-12T12:42:28.836Z,87526.78
2019-03-12T12:44:55.615Z,87517.55
2019-03-12T12:47:22.358Z,87514.88
2019-03-12T12:49:49.098Z,87506.39
2019-03-12T12:52:15.858Z,87503.23
2019-03-12T12:54:42.675Z,87503.94
2019-03-12T12:57:09.398Z,87501.45
2019-03-12T12:59:36.122Z,87510.41
2019-03-12T13:02:03.232Z,87507.78
2019-03-12T13:04:29.950Z,87506.85
2019-03-12T13:06:56.661Z,87509.88
2019-03-12T13:09:23.444Z,87507.22
2019-03-12T13:11:50.190Z,87502.11
2019-03-12T13:14:16.950Z,87501.32
2019-03-12T13:16:43.907Z,87502.50
2019-03-12T13:19:10.612Z,87501.92
2019-03-12T13:21:37.332Z,87503.83
2019-03-12T13:24:04.119Z,87504.39
2019-03-12T13:26:30.863Z,87510.62
2019-03-12T13:28:57.589Z,87500.23
2019-03-12T13:31:24.457Z,87498.30
2019-03-12T13:33:51.181Z,87499.80
2019-03-12T13:36:17.895Z,87488.41
2019-03-12T13:38:46.382Z,87486.52
2019-03-12T13:41:13.237Z,87483.45
2019-03-12T13:43:40.116Z,87481.20
2019-03-12T13:46:06.807Z,87480.27
2019-03-12T13:48:33.555Z,87479.00
2019-03-12T13:51:00.452Z,87475.56
2019-03-12T13:53:27.175Z,87474.21
2019-03-12T13:55:54.017Z,87474.98
2019-03-12T13:58:20.855Z,87477.98
2019-03-12T14:00:47.690Z,87473.33
2019-03-12T14:03:14.390Z,87472.41
2019-03-12T14:05:41.170Z,87469.38
2019-03-12T14:08:07.921Z,87463.93
2019-03-12T14:10:34.772Z,87468.88
2019-03-12T14:13:01.480Z,87472.86
2019-03-12T14:15:36.415Z,87464.35
2019-03-12T14:18:03.975Z,87457.71
2019-03-12T14:20:53.254Z,87460.35
2019-03-12T14:23:36.329Z,87462.23
2019-03-12T14:26:03.390Z,87456.96
2019-03-12T14:28:30.297Z,87460.38
2019-03-12T14:30:57.268Z,87449.91
2019-03-12T14:33:24.032Z,87457.64
2019-03-12T14:35:52.293Z,87457.51
2019-03-12T14:38:19.359Z,87455.19
2019-03-12T14:40:46.191Z,87455.75
2019-03-12T14:43:13.095Z,87459.50
2019-03-12T14:45:51.115Z,87457.91
2019-03-12T14:48:51.890Z,87455.81
2019-03-12T14:51:32.455Z,87452.98
2019-03-12T14:54:12.524Z,87444.62
2019-03-12T14:56:39.463Z,87446.88
2019-03-12T14:59:06.236Z,87437.63
2019-03-12T15:01:33.079Z,87438.52
2019-03-12T15:03:59.883Z,87439.45
2019-03-12T15:06:26.628Z,87428.67
2019-03-12T15:08:53.722Z,87426.59
2019-03-12T15:11:20.436Z,87428.28
2019-03-12T15:13:47.260Z,87422.81
2019-03-12T15:16:14.143Z,87413.88
2019-03-12T15:18:40.882Z,87411.95
2019-03-12T15:21:07.660Z,87416.87
2019-03-12T15:23:34.452Z,87415.04
2019-03-12T15:26:01.149Z,87409.02
2019-03-12T15:28:27.864Z,87409.02
2019-03-12T15:30:54.630Z,87406.08
2019-03-12T15:33:21.348Z,87410.20
2019-03-12T15:35:48.188Z,87403.44
2019-03-12T15:38:14.917Z,87400.58
2019-03-12T15:40:41.645Z,87397.71
2019-03-12T15:43:08.505Z,87395.48
2019-03-12T15:45:35.213Z,87393.67
2019-03-12T15:48:01.940Z,87390.22
2019-03-12T15:50:28.845Z,87388.13
2019-03-12T15:52:55.578Z,87379.39
2019-03-12T15:55:22.331Z,87376.88
2019-03-12T15:57:49.188Z,87375.04
2019-03-12T16:00:16.776Z,87370.67
2019-03-12T16:02:43.432Z,87368.47
2019-03-12T16:05:10.373Z,87367.72
2019-03-12T16:07:37.029Z,87366.45
2019-03-12T16:10:10.625Z,87366.09
2019-03-12T16:12:37.503Z,87371.73
2019-03-12T16:15:08.541Z,87366.67
2019-03-12T16:17:35.294Z,87371.00
2019-03-12T16:20:04.818Z,87370.77
2019-03-12T16:22:32.254Z,87368.67
2019-03-12T16:24:58.932Z,87371.31
2019-03-12T16:27:25.880Z,87375.97
2019-03-12T16:29:52.740Z,87369.44
2019-03-12T16:32:19.564Z,87366.58
2019-03-12T16:34:46.348Z,87359.22
2019-03-12T16:37:18.581Z,87358.26
2019-03-12T16:39:45.473Z,87358.05
2019-03-12T16:42:12.365Z,87355.55
2019-03-12T16:44:39.029Z,87362.80
2019-03-12T16:47:06.022Z,87371.80
2019-03-12T16:49:32.724Z,87373.61
2019-03-12T16:51:59.475Z,87373.67
2019-03-12T16:54:26.596Z,87370.20
2019-03-12T16:56:53.432Z,87370.09
2019-03-12T16:59:20.160Z,87364.92
2019-03-12T17:01:47.040Z,87366.51
2019-03-12T17:04:13.798Z,87367.45
2019-03-12T17:06:40.501Z,87370.30
2019-03-12T17:09:09.006Z,87375.75
2019-03-12T17:11:35.722Z,87374.57
2019-03-12T17:14:02.561Z,87375.45
2019-03-12T17:16:29.356Z,87370.63
2019-03-12T17:18:56.397Z,87375.91
2019-03-12T17:21:23.210Z,87378.57
2019-03-12T17:23:50.397Z,87377.00
2019-03-12T17:26:17.447Z,87370.94
2019-03-12T17:28:44.583Z,87378.80
2019-03-12T17:31:12.180Z,87370.20
2019-03-12T17:33:39.397Z,87368.59
2019-03-12T17:36:06.530Z,87369.67
2019-03-12T17:38:45.963Z,87372.31
2019-03-12T17:41:02.880Z,87370.92
2019-03-12T17:43:30.265Z,87372.69
2019-03-12T17:45:57.789Z,87378.46
2019-03-12T17:48:24.937Z,87374.04
2019-03-12T17:50:52.259Z,87373.84
2019-03-12T17:53:19.602Z,87378.73
2019-03-12T17:55:46.727Z,87381.67
2019-03-12T17:58:13.876Z,87385.03
2019-03-12T18:00:41.134Z,87378.63
2019-03-12T18:03:08.265Z,87380.92
2019-03-12T18:05:35.561Z,87374.29
2019-03-12T18:08:02.846Z,87377.68
2019-03-12T18:10:30.162Z,87382.03
2019-03-12T18:12:57.312Z,87378.54
2019-03-12T18:15:24.582Z,87377.36
2019-03-12T18:17:51.796Z,87382.37
2019-03-12T18:20:21.863Z,87393.96
2019-03-12T18:22:52.056Z,87389.73
2019-03-12T18:25:33.754Z,87389.08
2019-03-12T18:28:01.031Z,87394.50
2019-03-12T18:30:28.349Z,87388.97
2019-03-12T18:32:55.479Z,87391.88
2019-03-12T18:35:22.969Z,87389.08
2019-03-12T18:37:50.163Z,87391.45
2019-03-12T18:40:25.173Z,87378.97
2019-03-12T18:42:52.457Z,87385.91
2019-03-12T18:45:33.675Z,87387.65
2019-03-12T18:48:00.851Z,87391.12
2019-03-12T18:50:28.057Z,87389.59
2019-03-12T18:52:55.452Z,87384.05
2019-03-12T18:55:38.364Z,87392.19
2019-03-12T18:58:06.467Z,87399.00
2019-03-12T19:00:34.496Z,87391.73
2019-03-12T19:03:01.610Z,87383.48
2019-03-12T19:05:28.939Z,87385.76
2019-03-12T19:07:56.182Z,87379.72
2019-03-12T19:10:23.402Z,87382.09
2019-03-12T19:12:50.652Z,87378.72
2019-03-12T19:15:17.790Z,87377.86
2019-03-12T19:17:44.829Z,87380.22
2019-03-12T19:20:17.481Z,87380.89
2019-03-12T19:22:44.579Z,87376.78
2019-03-12T19:25:34.578Z,87384.25
2019-03-12T19:28:01.730Z,87383.48
2019-03-12T19:30:33.674Z,87389.22
2019-03-12T19:33:00.918Z,87389.89
2019-03-12T19:35:30.012Z,87384.69
2019-03-12T19:37:59.110Z,87384.25
2019-03-12T19:40:44.567Z,87378.42
2019-03-12T19:43:12.045Z,87379.05
2019-03-12T19:45:39.359Z,87374.82
2019-03-12T19:48:06.764Z,87379.16
2019-03-12T19:50:34.785Z,87368.95
2019-03-12T19:53:02.350Z,87368.42
2019-03-12T19:55:57.927Z,87367.35
2019-03-12T19:58:28.164Z,87373.09
2019-03-12T20:00:56.574Z,87364.52
2019-03-12T20:03:23.965Z,87358.65
2019-03-12T20:05:51.313Z,87361.14
2019-03-12T20:08:18.656Z,87359.81
2019-03-12T20:11:02.991Z,87357.11
2019-03-12T20:14:24.417Z,87350.80
2019-03-12T20:17:16.231Z,87357.73
2019-03-12T20:20:37.538Z,87351.52
2019-03-12T20:23:36.999Z,87357.78
2019-03-12T20:27:01.008Z,87366.42
2019-03-12T20:29:58.817Z,87366.29
2019-03-12T20:32:48.900Z,87361.08
2019-03-12T20:35:32.698Z,87352.52
2019-03-12T20:38:52.908Z,87356.32
2019-03-12T20:42:00.347Z,87349.20
2019-03-12T20:44:59.593Z,87350.20
2019-03-12T20:47:50.116Z,87334.70
2019-03-12T20:50:48.050Z,87339.89
2019-03-12T20:54:07.423Z,87341.96
2019-03-12T20:57:29.924Z,87343.36
2019-03-12T21:00:11.098Z,87346.58
2019-03-12T21:03:01.641Z,87343.98
2019-03-12T21:06:04.125Z,87348.11
2019-03-12T21:08:48.193Z,87345.08
2019-03-12T21:12:03.153Z,87335.98
2019-03-12T21:15:15.214Z,87337.09
2019-03-12T21:18:33.471Z,87330.80
2019-03-12T21:21:39.399Z,87324.72
2019-03-12T21:24:36.103Z,87309.23
2019-03-12T21:27:14.190Z,87307.52
2019-03-12T21:29:43.014Z,87303.30
2019-03-12T21:32:11.781Z,87302.14
2019-03-12T21:34:38.851Z,87292.39
2019-03-12T21:37:05.867Z,87296.61
2019-03-12T21:39:32.839Z,87295.31
2019-03-12T21:41:59.658Z,87296.95
2019-03-12T21:44:26.553Z,87295.98
2019-03-12T21:46:53.449Z,87303.12
2019-03-12T21:49:20.307Z,87302.15
2019-03-12T21:51:47.500Z,87292.28
2019-03-12T21:54:14.283Z,87278.63
2019-03-12T21:56:41.145Z,87280.69
2019-03-12T21:59:07.981Z,87273.88
2019-03-12T22:01:34.961Z,87264.01
2019-03-12T22:04:01.728Z,87260.10
2019-03-12T22:06:28.623Z,87259.44
2019-03-12T22:08:55.578Z,87249.80
2019-03-12T22:11:22.336Z,87239.72
2019-03-12T22:13:49.080Z,87246.34
2019-03-12T22:16:15.825Z,87247.82
2019-03-12T22:18:42.571Z,87253.31
2019-03-12T22:21:09.463Z,87250.72
2019-03-12T22:23:36.183Z,87247.38
2019-03-12T22:26:02.903Z,87240.89
2019-03-12T22:28:29.711Z,87247.04
2019-03-12T22:30:56.551Z,87247.57
2019-03-12T22:33:23.415Z,87239.99
2019-03-12T22:35:50.286Z,87244.74
2019-03-12T22:38:16.986Z,87248.34
2019-03-12T22:40:43.734Z,87247.34
2019-03-12T22:43:10.461Z,87239.65
2019-03-12T22:45:37.487Z,87243.45
2019-03-12T22:48:04.165Z,87250.17
2019-03-12T22:50:31.062Z,87238.91
2019-03-12T22:52:57.803Z,87233.91
2019-03-12T22:55:24.539Z,87239.21
2019-03-12T22:57:51.604Z,87253.28
2019-03-12T23:00:20.116Z,87248.72
2019-03-12T23:02:46.958Z,87255.53
2019-03-12T23:05:14.377Z,87250.52
2019-03-12T23:07:41.118Z,87237.75
2019-03-12T23:10:11.176Z,87227.42
2019-03-12T23:12:38.231Z,87225.70
2019-03-12T23:15:14.036Z,87225.25
2019-03-12T23:17:40.778Z,87219.59
2019-03-12T23:20:11.908Z,87217.42
2019-03-12T23:22:38.790Z,87209.53
2019-03-12T23:25:07.620Z,87204.64
2019-03-12T23:27:34.344Z,87205.30
2019-03-12T23:30:01.175Z,87200.64
2019-03-12T23:32:27.935Z,87201.59
2019-03-12T23:34:54.689Z,87194.53
2019-03-12T23:37:21.520Z,87185.59
2019-03-12T23:39:48.230Z,87181.28
2019-03-12T23:42:14.937Z,87178.06
2019-03-12T23:44:41.713Z,87167.69
2019-03-12T23:47:08.414Z,87167.25
2019-03-12T23:49:35.284Z,87157.83
2019-03-12T23:52:02.065Z,87159.56
2019-03-12T23:54:29.131Z,87162.06
2019-03-12T23:56:56.045Z,87165.95
2019-03-12T23:59:22.774Z,87159.23
